Etusivu
METAR-TAF:

METAR-TAF

Lentoasemat :

Kingston, Jamaika

Leveyspiiri: 17-56N, Pituuspiiri: 076-47W, korkeus merenpinnasta: 3 m

Tämänhetkinen sää

Tämä raportti tehtiin 6 tuntia ja 44 minuuttia sitten, kello 15.00 UTC
Tuuli 16 kn kaakosta
Lämpötila 31°C
Kosteus 52%
Ilmanpaine 1019 hPa
Näkyvyys 10 km tai enemmän
Muutamia pilviä 2400 ft:n korkeudessa

METAR: MKJP 201500Z 13016KT 9999 FEW024 31/20 Q1019

Aika: 16:44 (21:44 UTC)

Sääennuste

Tämä raportti tehtiin 10 tuntia ja 29 minuuttia sitten, kello 11.15 UTC
Ennuste voimassa 20. päivästä klo 12 UTC - 21. päivään klo 12 UTC
Tuuli 25 kn kaakosta puuskistuen 35 kn:hen
Näkyvyys 10 km tai enemmän
Muutamia pilviä 2200 ft:n korkeudessa
Tulossa
21. päivästä klo 03 UTC - 21. päivään klo 05 UTC
Tuuli 5 kn pohjoisesta

TAF: MKJP 201115Z 2012/2112 14025G35KT 9999 FEW022 BECMG 2103/2105 36005KT

Säähavainnot ja -ennusteet yli 4000 lentoasemalta (METAR- ja TAF-raportit).

Käytössä olevat sääasemat on merkitty karttaan keltaisilla ja punaisilla pisteillä.

Aseta hiiri pisteen päälle nähdäksesi sääaseman nimen.

Klikkaa sitten nähdäksesi säähavainnot ja -ennusteet.

Kartan vaihtaminen: klikkaa mustalla rastilla varustettuja vihreitä pisteitä, niin voit zoomata sisään; viivalla varustettua vihreää pistettä, niin voit zoomata ulos tai vihreitä nuolia, niin pääset viereisille kartoille.


METAR-TAF: